createdAt,value
2018-06-29T00:00:14.793Z,21.82
2018-06-29T00:01:07.840Z,21.83
2018-06-29T00:02:10.918Z,21.75
2018-06-29T00:03:28.027Z,21.72
2018-06-29T00:05:15.133Z,21.66
2018-06-29T00:07:53.856Z,21.69
2018-06-29T00:08:53.964Z,21.63
2018-06-29T00:09:50.489Z,21.61
2018-06-29T00:10:50.087Z,21.56
2018-06-29T00:12:06.171Z,21.50
2018-06-29T00:13:09.249Z,21.56
2018-06-29T00:14:13.971Z,21.56
2018-06-29T00:15:20.730Z,21.54
2018-06-29T00:17:26.277Z,21.54
2018-06-29T00:18:34.783Z,21.44
2018-06-29T00:19:41.451Z,21.50
2018-06-29T00:20:52.305Z,21.48
2018-06-29T00:21:49.855Z,21.46
2018-06-29T00:25:15.988Z,21.41
2018-06-29T00:26:06.982Z,21.41
2018-06-29T00:27:18.664Z,21.36
2018-06-29T00:29:33.216Z,21.30
2018-06-29T00:30:35.271Z,21.30
2018-06-29T00:31:31.182Z,21.38
2018-06-29T00:32:51.875Z,21.29
2018-06-29T00:34:00.893Z,21.30
2018-06-29T00:34:57.111Z,21.24
2018-06-29T00:36:02.726Z,21.26
2018-06-29T00:37:11.357Z,21.24
2018-06-29T00:38:22.219Z,21.17
2018-06-29T00:39:20.176Z,21.19
2018-06-29T00:41:20.192Z,21.09
2018-06-29T00:42:40.984Z,21.02
2018-06-29T00:43:48.160Z,20.87
2018-06-29T00:44:47.230Z,20.83
2018-06-29T00:45:57.226Z,20.80
2018-06-29T00:47:58.426Z,20.77
2018-06-29T00:49:13.897Z,20.64
2018-06-29T00:50:11.752Z,20.68
2018-06-29T00:51:19.438Z,20.64
2018-06-29T00:52:17.704Z,20.59
2018-06-29T00:53:26.723Z,20.61
2018-06-29T00:54:44.957Z,20.54
2018-06-29T00:55:36.979Z,20.59
2018-06-29T00:56:40.669Z,20.47
2018-06-29T00:57:57.650Z,20.43
2018-06-29T00:58:56.457Z,20.46
2018-06-29T01:00:05.573Z,20.35
2018-06-29T01:01:07.017Z,20.34
2018-06-29T01:02:04.564Z,20.30
2018-06-29T01:03:17.267Z,20.21
2018-06-29T01:05:28.954Z,20.08
2018-06-29T01:06:38.382Z,20.09
2018-06-29T01:07:40.130Z,20.02
2018-06-29T01:08:49.352Z,19.95
2018-06-29T01:09:54.585Z,19.86
2018-06-29T01:10:59.196Z,19.78
2018-06-29T01:12:07.610Z,19.78
2018-06-29T01:13:06.731Z,19.63
2018-06-29T01:14:06.283Z,19.48
2018-06-29T01:15:20.422Z,19.46
2018-06-29T01:16:21.455Z,19.31
2018-06-29T01:19:44.615Z,18.91
2018-06-29T01:21:54.664Z,18.95
2018-06-29T01:23:05.013Z,18.84
2018-06-29T01:23:58.580Z,18.79
2018-06-29T01:25:13.423Z,18.72
2018-06-29T01:26:11.893Z,18.74
2018-06-29T01:27:14.459Z,18.74
2018-06-29T01:30:33.936Z,18.59
2018-06-29T01:31:39.576Z,18.70
2018-06-29T01:32:53.407Z,18.74
2018-06-29T01:34:05.395Z,18.62
2018-06-29T01:35:09.604Z,18.67
2018-06-29T01:36:12.681Z,18.76
2018-06-29T01:37:26.407Z,18.70
2018-06-29T01:39:24.986Z,18.68
2018-06-29T01:40:24.071Z,18.80
2018-06-29T01:41:32.783Z,18.82
2018-06-29T01:42:44.466Z,18.65
2018-06-29T01:43:37.100Z,18.72
2018-06-29T01:46:00.668Z,18.64
2018-06-29T01:46:52.887Z,18.70
2018-06-29T01:48:10.919Z,18.59
2018-06-29T01:49:07.954Z,18.52
2018-06-29T01:50:24.241Z,18.50
2018-06-29T01:51:44.773Z,18.44
2018-06-29T01:52:41.490Z,18.42
2018-06-29T01:53:46.380Z,18.43
2018-06-29T01:54:40.448Z,18.40
2018-06-29T01:55:39.228Z,18.34
2018-06-29T01:56:45.198Z,18.40
2018-06-29T01:57:48.661Z,18.40
2018-06-29T01:59:19.183Z,18.40
2018-06-29T02:00:09.461Z,18.46
2018-06-29T02:01:25.239Z,18.50
2018-06-29T02:02:31.290Z,18.46
2018-06-29T02:03:34.570Z,18.46
2018-06-29T02:04:36.727Z,18.54
2018-06-29T02:05:53.223Z,18.50
2018-06-29T02:06:45.343Z,18.47
2018-06-29T02:09:22.429Z,18.52
2018-06-29T02:10:23.559Z,18.57
2018-06-29T02:11:00.321Z,18.47
2018-06-29T02:12:14.252Z,18.54
2018-06-29T02:13:18.870Z,18.52
2018-06-29T02:14:09.969Z,18.55
2018-06-29T02:15:40.694Z,18.59
2018-06-29T02:16:50.026Z,18.55
2018-06-29T02:17:50.640Z,18.57
2018-06-29T02:18:36.310Z,18.50
2018-06-29T02:19:59.459Z,18.50
2018-06-29T02:21:08.581Z,18.46
2018-06-29T02:21:58.970Z,18.42
2018-06-29T02:23:11.461Z,18.43
2018-06-29T02:24:08.305Z,18.40
2018-06-29T02:25:09.119Z,18.37
2018-06-29T02:26:17.522Z,18.43
2018-06-29T02:27:21.830Z,18.36
2018-06-29T02:28:33.925Z,18.37
2018-06-29T02:29:56.066Z,18.37
2018-06-29T02:30:46.755Z,18.34
2018-06-29T02:32:00.770Z,18.39
2018-06-29T02:32:51.152Z,18.36
2018-06-29T02:34:00.179Z,18.33
2018-06-29T02:35:12.362Z,18.33
2018-06-29T02:36:05.080Z,18.29
2018-06-29T02:37:31.525Z,18.24
2018-06-29T02:39:42.187Z,18.28
2018-06-29T02:40:38.404Z,18.25
2018-06-29T02:41:43.738Z,18.29
2018-06-29T02:42:48.252Z,18.13
2018-06-29T02:43:41.383Z,18.27
2018-06-29T02:45:05.189Z,18.28
2018-06-29T02:46:28.107Z,18.12
2018-06-29T02:48:21.383Z,17.99
2018-06-29T02:49:20.381Z,17.99
2018-06-29T02:50:24.383Z,18.03
2018-06-29T02:51:24.247Z,17.88
2018-06-29T02:53:41.975Z,17.87
2018-06-29T02:54:48.295Z,17.88
2018-06-29T02:55:52.741Z,17.87
2018-06-29T02:57:02.068Z,18.00
2018-06-29T02:57:57.567Z,17.95
2018-06-29T02:59:01.773Z,18.09
2018-06-29T03:00:19.600Z,18.03
2018-06-29T03:02:20.328Z,18.04
2018-06-29T03:04:27.387Z,17.97
2018-06-29T03:05:46.161Z,18.04
2018-06-29T03:06:48.618Z,18.04
2018-06-29T03:07:55.387Z,18.06
2018-06-29T03:10:08.708Z,17.82
2018-06-29T03:11:15.578Z,18.02
2018-06-29T03:13:14.258Z,18.03
2018-06-29T03:14:30.035Z,17.95
2018-06-29T03:15:29.938Z,18.03
2018-06-29T03:16:32.096Z,17.79
2018-06-29T03:17:45.211Z,17.94
2018-06-29T03:18:48.187Z,17.91
2018-06-29T03:20:08.571Z,17.99
2018-06-29T03:20:49.391Z,17.92
2018-06-29T03:22:09.390Z,18.02
2018-06-29T03:23:09.643Z,17.94
2018-06-29T03:24:14.402Z,17.89
2018-06-29T03:26:34.111Z,18.02
2018-06-29T03:27:28.792Z,17.91
2018-06-29T03:28:26.751Z,17.97
2018-06-29T03:29:42.311Z,17.88
2018-06-29T03:30:45.506Z,17.94
2018-06-29T03:31:55.237Z,17.87
2018-06-29T03:32:49.719Z,17.87
2018-06-29T03:34:00.318Z,17.78
2018-06-29T03:35:14.215Z,17.79
2018-06-29T03:38:19.752Z,17.74
2018-06-29T03:39:29.286Z,17.79
2018-06-29T03:40:30.793Z,17.74
2018-06-29T03:41:41.584Z,17.66
2018-06-29T03:42:45.174Z,17.74
2018-06-29T03:43:56.858Z,17.78
2018-06-29T03:45:02.290Z,17.81
2018-06-29T03:45:59.019Z,17.79
2018-06-29T03:47:11.929Z,17.81
2018-06-29T03:48:11.219Z,17.78
2018-06-29T03:51:27.115Z,17.91
2018-06-29T03:55:42.909Z,17.87
2018-06-29T03:56:55.920Z,17.89
2018-06-29T03:59:14.470Z,17.88
2018-06-29T04:00:13.348Z,17.84
2018-06-29T04:01:20.011Z,17.85
2018-06-29T04:03:31.090Z,17.91
2018-06-29T04:05:40.927Z,17.87
2018-06-29T04:06:46.466Z,17.88
2018-06-29T04:07:49.236Z,17.87
2018-06-29T04:08:56.206Z,17.87
2018-06-29T04:10:05.327Z,17.84
2018-06-29T04:11:08.101Z,17.78
2018-06-29T04:13:25.110Z,17.84
2018-06-29T04:15:34.852Z,17.84
2018-06-29T04:16:33.220Z,17.88
2018-06-29T04:18:54.533Z,17.99
2018-06-29T04:19:58.737Z,18.00
2018-06-29T04:21:10.418Z,18.02
2018-06-29T04:22:03.257Z,18.03
2018-06-29T04:24:08.176Z,18.19
2018-06-29T04:25:30.208Z,18.18
2018-06-29T04:26:29.405Z,18.12
2018-06-29T04:28:53.372Z,18.15
2018-06-29T04:29:44.675Z,18.25
2018-06-29T04:30:56.767Z,18.27
2018-06-29T04:32:02.915Z,18.31
2018-06-29T04:34:09.398Z,18.28
2018-06-29T04:36:15.895Z,18.42
2018-06-29T04:37:33.417Z,18.40
2018-06-29T04:38:31.837Z,18.39
2018-06-29T04:39:28.772Z,18.33
2018-06-29T04:40:51.413Z,18.37
2018-06-29T04:41:55.420Z,18.37
2018-06-29T04:45:25.941Z,18.46
2018-06-29T04:46:27.484Z,18.50
2018-06-29T04:47:20.734Z,18.49
2018-06-29T04:48:39.375Z,18.47
2018-06-29T04:50:50.145Z,18.47
2018-06-29T04:52:53.432Z,18.50
2018-06-29T04:53:57.739Z,18.67
2018-06-29T04:55:05.020Z,18.58
2018-06-29T04:55:54.746Z,18.62
2018-06-29T04:57:29.003Z,18.68
2018-06-29T04:58:10.668Z,18.67
2018-06-29T04:59:22.249Z,18.70
2018-06-29T05:00:21.845Z,18.72
2018-06-29T05:01:21.749Z,18.79
2018-06-29T05:02:39.983Z,18.72
2018-06-29T05:03:36.201Z,18.72
2018-06-29T05:04:43.070Z,18.74
2018-06-29T05:08:02.957Z,18.94
2018-06-29T05:09:12.281Z,18.91
2018-06-29T05:10:21.403Z,18.94
2018-06-29T05:11:25.197Z,18.92
2018-06-29T05:12:27.046Z,18.95
2018-06-29T05:13:31.252Z,19.01
2018-06-29T05:14:28.189Z,19.02
2018-06-29T05:15:37.013Z,19.05
2018-06-29T05:16:48.579Z,19.10
2018-06-29T05:17:49.710Z,19.06
2018-06-29T05:18:56.067Z,19.15
2018-06-29T05:19:55.970Z,19.15
2018-06-29T05:25:18.434Z,19.29
2018-06-29T05:26:33.696Z,19.31
2018-06-29T05:28:40.269Z,19.32
2018-06-29T05:29:55.635Z,19.36
2018-06-29T05:31:02.499Z,19.39
2018-06-29T05:31:55.287Z,19.25
2018-06-29T05:33:08.449Z,19.42
2018-06-29T05:34:08.231Z,19.35
2018-06-29T05:35:15.220Z,19.43
2018-06-29T05:36:26.905Z,19.42
2018-06-29T05:37:22.711Z,19.50
2018-06-29T05:38:35.108Z,19.48
2018-06-29T05:39:31.431Z,19.48
2018-06-29T05:40:46.486Z,19.48
2018-06-29T05:42:56.433Z,19.54
2018-06-29T05:44:05.969Z,19.60
2018-06-29T05:45:02.288Z,19.57
2018-06-29T05:46:13.202Z,19.60
2018-06-29T05:48:20.432Z,19.63
2018-06-29T05:49:38.458Z,19.68
2018-06-29T05:50:33.038Z,19.72
2018-06-29T05:51:39.393Z,19.66
2018-06-29T05:52:37.864Z,19.70
2018-06-29T05:53:52.003Z,19.78
2018-06-29T05:54:49.346Z,19.78
2018-06-29T05:56:03.491Z,19.69
2018-06-29T05:58:10.362Z,19.83
2018-06-29T06:00:17.032Z,19.79
2018-06-29T06:01:34.547Z,19.79
2018-06-29T06:02:28.615Z,19.87
2018-06-29T06:05:47.580Z,19.98
2018-06-29T06:06:50.452Z,19.95
2018-06-29T06:07:59.281Z,19.98
2018-06-29T06:09:11.356Z,19.98
2018-06-29T06:10:10.058Z,20.08
2018-06-29T06:11:16.442Z,20.08
2018-06-29T06:12:17.417Z,20.02
2018-06-29T06:13:41.093Z,20.16
2018-06-29T06:15:40.999Z,20.13
2018-06-29T06:16:49.498Z,20.13
2018-06-29T06:17:49.609Z,20.23
2018-06-29T06:18:58.623Z,20.13
2018-06-29T06:20:00.780Z,20.34
2018-06-29T06:21:01.514Z,20.25
2018-06-29T06:22:08.784Z,20.34
2018-06-29T06:23:20.052Z,20.34
2018-06-29T06:24:27.643Z,20.31
2018-06-29T06:26:36.253Z,20.41
2018-06-29T06:27:38.206Z,20.47
2018-06-29T06:28:43.845Z,20.51
2018-06-29T06:30:58.606Z,20.50
2018-06-29T06:32:02.910Z,20.58
2018-06-29T06:33:04.259Z,20.54
2018-06-29T06:34:09.458Z,20.51
2018-06-29T06:35:18.905Z,20.61
2018-06-29T06:36:24.444Z,20.51
2018-06-29T06:37:24.244Z,20.51
2018-06-29T06:38:36.028Z,20.62
2018-06-29T06:39:38.494Z,20.62
2018-06-29T06:40:50.580Z,20.62
2018-06-29T06:41:46.595Z,20.65
2018-06-29T06:42:49.367Z,20.66
2018-06-29T06:44:05.655Z,20.80
2018-06-29T06:46:11.914Z,20.80
2018-06-29T06:49:25.872Z,20.80
2018-06-29T06:50:37.850Z,20.93
2018-06-29T06:52:51.892Z,21.02
2018-06-29T06:56:05.123Z,21.08
2018-06-29T06:57:15.781Z,21.05
2018-06-29T06:58:12.008Z,21.13
2018-06-29T06:59:17.942Z,21.13
2018-06-29T07:00:26.449Z,21.13
2018-06-29T07:01:27.479Z,21.16
2018-06-29T07:02:34.552Z,21.24
2018-06-29T07:03:33.431Z,21.24
2018-06-29T07:07:06.220Z,21.36
2018-06-29T07:08:08.385Z,21.32
2018-06-29T07:10:17.103Z,21.30
2018-06-29T07:11:16.467Z,21.42
2018-06-29T07:12:27.461Z,21.46
2018-06-29T07:15:39.146Z,21.46
2018-06-29T07:17:53.597Z,21.67
2018-06-29T07:18:54.731Z,21.61
2018-06-29T07:21:07.954Z,21.67
2018-06-29T07:22:16.771Z,21.69
2018-06-29T07:24:22.360Z,21.79
2018-06-29T07:25:31.841Z,21.88
2018-06-29T07:26:34.714Z,21.92
2018-06-29T07:27:49.161Z,21.97
2018-06-29T07:29:54.515Z,21.97
2018-06-29T07:30:52.467Z,22.04
2018-06-29T07:33:13.565Z,22.13
2018-06-29T07:34:10.470Z,22.06
2018-06-29T07:36:28.843Z,22.23
2018-06-29T07:38:35.232Z,22.20
2018-06-29T07:39:44.838Z,22.23
2018-06-29T07:41:04.505Z,22.35
2018-06-29T07:42:07.994Z,22.31
2018-06-29T07:43:08.002Z,22.39
2018-06-29T07:45:32.797Z,22.43
2018-06-29T07:47:23.593Z,22.56
2018-06-29T07:48:38.244Z,22.52
2018-06-29T07:49:40.927Z,22.56
2018-06-29T07:50:45.526Z,22.57
2018-06-29T07:51:37.854Z,22.69
2018-06-29T07:52:57.755Z,22.72
2018-06-29T07:53:55.584Z,22.72
2018-06-29T07:55:12.383Z,22.72
2018-06-29T07:56:08.756Z,22.77
2018-06-29T07:57:18.649Z,22.84
2018-06-29T07:58:36.033Z,22.89
2018-06-29T08:00:27.573Z,22.90
2018-06-29T08:02:00.863Z,22.94
2018-06-29T08:02:50.634Z,22.97
2018-06-29T08:03:55.670Z,22.99
2018-06-29T08:05:01.805Z,22.97
2018-06-29T08:05:57.611Z,23.12
2018-06-29T08:07:25.982Z,23.11
2018-06-29T08:08:20.988Z,23.07
2018-06-29T08:10:28.479Z,23.15
2018-06-29T08:12:53.365Z,23.20
2018-06-29T08:13:45.376Z,23.29
2018-06-29T08:15:04.839Z,23.23
2018-06-29T08:15:47.438Z,23.38
2018-06-29T08:17:01.233Z,23.32
2018-06-29T08:18:13.976Z,23.39
2018-06-29T08:19:31.492Z,23.38
2018-06-29T08:20:45.322Z,23.45
2018-06-29T08:21:26.588Z,23.49
2018-06-29T08:22:36.632Z,23.45
2018-06-29T08:23:30.800Z,23.50
2018-06-29T08:24:53.030Z,23.49
2018-06-29T08:26:11.366Z,23.50
2018-06-29T08:26:50.073Z,23.60
2018-06-29T08:27:52.127Z,23.53
2018-06-29T08:28:54.592Z,23.58
2018-06-29T08:29:59.885Z,23.64
2018-06-29T08:31:14.485Z,23.67
2018-06-29T08:32:22.260Z,23.70
2018-06-29T08:34:23.912Z,23.75
2018-06-29T08:35:31.803Z,23.79
2018-06-29T08:36:46.864Z,23.79
2018-06-29T08:37:31.714Z,23.82
2018-06-29T08:38:54.044Z,23.90
2018-06-29T08:39:47.190Z,23.97
2018-06-29T08:42:13.315Z,24.01
2018-06-29T08:47:36.597Z,24.16
2018-06-29T08:48:35.484Z,24.20
2018-06-29T08:49:38.518Z,24.26
2018-06-29T08:50:39.687Z,24.27
2018-06-29T08:51:50.489Z,24.27
2018-06-29T08:53:04.792Z,24.35
2018-06-29T08:53:50.187Z,24.38
2018-06-29T08:55:04.979Z,24.44
2018-06-29T08:56:16.997Z,24.45
2018-06-29T08:57:06.873Z,24.47
2018-06-29T08:59:30.737Z,24.64
2018-06-29T09:01:33.417Z,24.69
2018-06-29T09:02:32.498Z,24.75
2018-06-29T09:03:48.388Z,24.82
2018-06-29T09:04:54.072Z,24.76
2018-06-29T09:05:56.796Z,24.90
2018-06-29T09:06:56.385Z,24.87
2018-06-29T09:08:07.657Z,24.82
2018-06-29T09:09:09.609Z,24.97
2018-06-29T09:10:25.896Z,25.01
2018-06-29T09:12:26.016Z,25.00
2018-06-29T09:13:32.372Z,25.09
2018-06-29T09:14:50.610Z,25.07
2018-06-29T09:15:43.042Z,25.10
2018-06-29T09:16:40.497Z,25.15
2018-06-29T09:19:05.484Z,25.27
2018-06-29T09:20:08.147Z,25.24
2018-06-29T09:21:07.641Z,25.27
2018-06-29T09:22:26.290Z,25.37
2018-06-29T09:23:36.847Z,25.44
2018-06-29T09:24:35.505Z,25.38
2018-06-29T09:25:29.583Z,25.43
2018-06-29T09:26:38.705Z,25.49
2018-06-29T09:27:55.308Z,25.42
2018-06-29T09:30:10.265Z,25.52
2018-06-29T09:31:15.288Z,25.61
2018-06-29T09:32:12.018Z,25.64
2018-06-29T09:34:20.944Z,25.74
2018-06-29T09:36:29.761Z,25.84
2018-06-29T09:37:55.583Z,25.89
2018-06-29T09:39:52.617Z,26.01
2018-06-29T09:41:05.117Z,26.02
2018-06-29T09:41:59.799Z,25.90
2018-06-29T09:43:01.653Z,25.97
2018-06-29T09:44:06.162Z,26.02
2018-06-29T09:45:07.703Z,26.01
2018-06-29T09:46:12.933Z,26.08
2018-06-29T09:47:26.149Z,26.05
2018-06-29T09:48:34.553Z,26.11
2018-06-29T09:49:36.507Z,26.09
2018-06-29T09:51:59.006Z,26.18
2018-06-29T09:53:04.584Z,26.24
2018-06-29T09:53:55.999Z,26.15
2018-06-29T09:55:08.131Z,26.29
2018-06-29T09:56:16.173Z,26.27
2018-06-29T09:57:12.495Z,26.29
2018-06-29T09:59:32.070Z,26.35
2018-06-29T10:00:33.926Z,26.35
2018-06-29T10:02:44.480Z,26.46
2018-06-29T10:03:53.806Z,26.55
2018-06-29T10:04:51.352Z,26.49
2018-06-29T10:06:07.267Z,26.61
2018-06-29T10:06:59.558Z,26.59
2018-06-29T10:08:06.323Z,26.62
2018-06-29T10:09:21.999Z,26.65
2018-06-29T10:11:31.133Z,26.65
2018-06-29T10:12:26.829Z,26.74
2018-06-29T10:13:38.823Z,26.79
2018-06-29T10:14:45.995Z,26.80
2018-06-29T10:16:00.033Z,26.89
2018-06-29T10:18:00.760Z,26.89
2018-06-29T10:20:08.861Z,26.92
2018-06-29T10:21:10.507Z,27.06
2018-06-29T10:24:29.984Z,27.24
2018-06-29T10:25:36.237Z,27.14
2018-06-29T10:26:39.229Z,27.28
2018-06-29T10:30:06.181Z,27.41
2018-06-29T10:30:58.698Z,27.48
2018-06-29T10:32:05.770Z,27.47
2018-06-29T10:33:15.402Z,27.51
2018-06-29T10:34:12.848Z,27.66
2018-06-29T10:35:32.109Z,27.69
2018-06-29T10:36:30.269Z,27.76
2018-06-29T10:37:45.125Z,27.73
2018-06-29T10:38:41.445Z,27.85
2018-06-29T10:39:57.939Z,27.80
2018-06-29T10:42:04.917Z,27.95
2018-06-29T10:43:04.523Z,27.98
2018-06-29T10:44:20.596Z,27.96
2018-06-29T10:45:30.946Z,28.01
2018-06-29T10:46:34.639Z,28.07
2018-06-29T10:47:30.860Z,28.19
2018-06-29T10:48:33.937Z,28.17
2018-06-29T10:50:42.038Z,28.25
2018-06-29T10:52:00.589Z,28.29
2018-06-29T10:52:55.668Z,28.29
2018-06-29T10:54:03.527Z,28.31
2018-06-29T10:55:07.256Z,28.25
2018-06-29T10:56:12.488Z,28.29
2018-06-29T10:58:20.528Z,28.36
2018-06-29T10:59:43.047Z,28.50
2018-06-29T11:01:49.183Z,28.59
2018-06-29T11:04:00.560Z,28.51
2018-06-29T11:05:04.048Z,28.58
2018-06-29T11:06:05.390Z,28.63
2018-06-29T11:07:12.764Z,28.56
2018-06-29T11:08:17.691Z,28.65
2018-06-29T11:09:29.785Z,28.56
2018-06-29T11:10:27.942Z,28.56
2018-06-29T11:11:28.873Z,28.60
2018-06-29T11:12:31.949Z,28.59
2018-06-29T11:13:45.063Z,28.62
2018-06-29T11:14:54.182Z,28.66
2018-06-29T11:15:58.797Z,28.69
2018-06-29T11:17:00.444Z,28.80
2018-06-29T11:18:09.154Z,28.87
2018-06-29T11:19:14.485Z,28.91
2018-06-29T11:20:19.409Z,28.87
2018-06-29T11:21:28.528Z,28.93
2018-06-29T11:22:23.535Z,28.93
2018-06-29T11:24:37.047Z,28.93
2018-06-29T11:25:48.065Z,28.95
2018-06-29T11:26:49.144Z,29.06
2018-06-29T11:27:56.012Z,28.95
2018-06-29T11:29:59.404Z,29.00
2018-06-29T11:31:05.453Z,29.19
2018-06-29T11:32:16.007Z,29.11
2018-06-29T11:33:22.978Z,29.25
2018-06-29T11:34:28.720Z,29.26
2018-06-29T11:35:40.912Z,29.20
2018-06-29T11:36:42.403Z,29.20
2018-06-29T11:39:04.185Z,29.34
2018-06-29T11:40:00.191Z,29.31
2018-06-29T11:41:02.347Z,29.37
2018-06-29T11:42:08.295Z,29.40
2018-06-29T11:43:09.733Z,29.47
2018-06-29T11:44:24.691Z,29.47
2018-06-29T11:45:27.979Z,29.47
2018-06-29T11:46:31.258Z,29.49
2018-06-29T11:47:35.984Z,29.57
2018-06-29T11:48:41.056Z,29.57
2018-06-29T11:49:56.572Z,29.65
2018-06-29T11:50:54.332Z,29.71
2018-06-29T11:53:01.030Z,29.75
2018-06-29T11:54:08.376Z,29.72
2018-06-29T11:55:13.558Z,29.74
2018-06-29T11:56:19.549Z,29.81
2018-06-29T11:57:28.977Z,29.81
2018-06-29T11:58:35.229Z,29.87
2018-06-29T11:59:36.166Z,29.92
2018-06-29T12:02:57.597Z,29.87
2018-06-29T12:05:03.952Z,29.94
2018-06-29T12:06:05.077Z,29.92
2018-06-29T12:07:15.999Z,29.96
2018-06-29T12:08:14.102Z,29.92
2018-06-29T12:10:32.449Z,29.93
2018-06-29T12:11:34.602Z,29.94
2018-06-29T12:12:49.058Z,29.92
2018-06-29T12:13:46.188Z,29.89
2018-06-29T12:15:54.289Z,29.93
2018-06-29T12:17:06.896Z,29.93
2018-06-29T12:18:12.534Z,29.97
2018-06-29T12:19:11.319Z,29.99
2018-06-29T12:20:16.553Z,29.99
2018-06-29T12:22:28.538Z,30.00
2018-06-29T12:23:43.900Z,30.02
2018-06-29T12:24:46.605Z,30.05
2018-06-29T12:25:44.733Z,29.96
2018-06-29T12:26:59.597Z,30.11
2018-06-29T12:28:00.900Z,30.09
2018-06-29T12:29:02.233Z,30.11
2018-06-29T12:30:06.681Z,30.03
2018-06-29T12:31:09.342Z,30.15
2018-06-29T12:32:24.102Z,30.15
2018-06-29T12:33:34.341Z,30.16
2018-06-29T12:34:31.859Z,30.21
2018-06-29T12:35:41.319Z,30.26
2018-06-29T12:37:48.295Z,30.19
2018-06-29T12:38:58.134Z,30.19
2018-06-29T12:40:01.724Z,30.15
2018-06-29T12:41:09.213Z,30.18
2018-06-29T12:42:13.923Z,30.19
2018-06-29T12:43:12.086Z,30.33
2018-06-29T12:45:34.564Z,30.31
2018-06-29T12:46:36.377Z,30.29
2018-06-29T12:47:38.329Z,30.36
2018-06-29T12:48:37.720Z,30.36
2018-06-29T12:49:49.810Z,30.38
2018-06-29T12:50:57.909Z,30.40
2018-06-29T12:52:01.571Z,30.31
2018-06-29T12:53:10.635Z,30.40
2018-06-29T12:54:12.470Z,30.45
2018-06-29T12:55:15.547Z,30.53
2018-06-29T12:56:20.468Z,30.50
2018-06-29T12:57:21.150Z,30.57
2018-06-29T12:58:32.269Z,30.56
2018-06-29T12:59:53.388Z,30.50
2018-06-29T13:04:07.006Z,30.59
2018-06-29T13:05:09.472Z,30.53
2018-06-29T13:06:16.851Z,30.53
2018-06-29T13:07:27.480Z,30.62
2018-06-29T13:09:33.357Z,30.49
2018-06-29T13:10:45.143Z,30.57
2018-06-29T13:11:36.244Z,30.54
2018-06-29T13:12:52.126Z,30.47
2018-06-29T13:13:47.825Z,30.50
2018-06-29T13:14:57.564Z,30.52
2018-06-29T13:15:55.219Z,30.54
2018-06-29T13:18:22.565Z,30.52
2018-06-29T13:19:25.132Z,30.47
2018-06-29T13:20:18.995Z,30.47
2018-06-29T13:21:32.823Z,30.53
2018-06-29T13:22:37.751Z,30.46
2018-06-29T13:23:39.918Z,30.49
2018-06-29T13:24:46.814Z,30.59
2018-06-29T13:27:03.136Z,30.61
2018-06-29T13:28:06.361Z,30.61
2018-06-29T13:29:14.456Z,30.61
2018-06-29T13:31:30.639Z,30.64
2018-06-29T13:32:20.304Z,30.57
2018-06-29T13:33:35.262Z,30.59
2018-06-29T13:34:37.418Z,30.53
2018-06-29T13:36:48.186Z,30.59
2018-06-29T13:38:05.507Z,30.59
2018-06-29T13:39:08.987Z,30.49
2018-06-29T13:42:16.094Z,30.49
2018-06-29T13:43:14.235Z,30.46
2018-06-29T13:45:32.885Z,30.43
2018-06-29T13:46:38.587Z,30.49
2018-06-29T13:47:41.603Z,30.50
2018-06-29T13:48:49.494Z,30.50
2018-06-29T13:50:04.554Z,30.47
2018-06-29T13:50:56.173Z,30.52
2018-06-29T13:52:01.496Z,30.52
2018-06-29T13:53:12.678Z,30.49
2018-06-29T13:54:08.677Z,30.47
2018-06-29T13:56:21.286Z,30.40
2018-06-29T13:57:36.960Z,30.38
2018-06-29T13:59:04.718Z,30.43
2018-06-29T14:01:10.164Z,30.36
2018-06-29T14:03:01.878Z,30.37
2018-06-29T14:04:07.627Z,30.37
2018-06-29T14:05:09.060Z,30.38
2018-06-29T14:06:26.064Z,30.24
2018-06-29T14:07:23.001Z,30.26
2018-06-29T14:09:40.217Z,30.23
2018-06-29T14:10:37.765Z,30.30
2018-06-29T14:11:54.778Z,30.29
2018-06-29T14:12:52.933Z,30.18
2018-06-29T14:13:54.075Z,30.16
2018-06-29T14:15:08.007Z,30.21
2018-06-29T14:16:00.328Z,30.18
2018-06-29T14:17:13.953Z,30.15
2018-06-29T14:18:16.112Z,30.09
2018-06-29T14:20:29.951Z,30.15
2018-06-29T14:21:36.205Z,30.14
2018-06-29T14:22:40.612Z,30.07
2018-06-29T14:23:49.595Z,29.99
2018-06-29T14:24:58.955Z,29.92
2018-06-29T14:25:52.920Z,29.94
2018-06-29T14:30:13.600Z,29.93
2018-06-29T14:32:31.872Z,29.90
2018-06-29T14:33:32.292Z,29.92
2018-06-29T14:34:42.444Z,29.89
2018-06-29T14:35:52.578Z,29.96
2018-06-29T14:36:57.512Z,29.93
2018-06-29T14:37:56.936Z,29.82
2018-06-29T14:39:06.598Z,29.92
2018-06-29T14:40:12.990Z,29.89
2018-06-29T14:41:22.103Z,29.82
2018-06-29T14:43:27.442Z,29.82
2018-06-29T14:44:30.010Z,29.79
2018-06-29T14:45:32.598Z,29.81
2018-06-29T14:51:11.629Z,29.84
2018-06-29T14:52:07.843Z,29.84
2018-06-29T14:53:19.832Z,29.82
2018-06-29T14:54:17.279Z,29.77
2018-06-29T14:55:31.314Z,29.81
2018-06-29T14:57:40.645Z,29.72
2018-06-29T14:58:48.947Z,29.75
2018-06-29T14:59:56.941Z,29.81
2018-06-29T15:00:52.137Z,29.72
2018-06-29T15:04:15.508Z,29.79
2018-06-29T15:05:21.652Z,29.75
2018-06-29T15:07:26.275Z,29.68
2018-06-29T15:08:34.378Z,29.75
2018-06-29T15:09:34.885Z,29.71
2018-06-29T15:10:44.624Z,29.68
2018-06-29T15:11:50.878Z,29.74
2018-06-29T15:12:48.606Z,29.77
2018-06-29T15:13:52.634Z,29.75
2018-06-29T15:15:03.278Z,29.71
2018-06-29T15:16:17.208Z,29.72
2018-06-29T15:17:13.206Z,29.72
2018-06-29T15:18:14.470Z,29.62
2018-06-29T15:19:32.602Z,29.66
2018-06-29T15:20:44.692Z,29.71
2018-06-29T15:21:33.756Z,29.62
2018-06-29T15:22:52.079Z,29.57
2018-06-29T15:23:50.346Z,29.68
2018-06-29T15:26:08.791Z,29.63
2018-06-29T15:27:17.299Z,29.60
2018-06-29T15:28:13.610Z,29.57
2018-06-29T15:29:18.133Z,29.47
2018-06-29T15:30:28.074Z,29.55
2018-06-29T15:31:29.722Z,29.52
2018-06-29T15:32:36.480Z,29.53
2018-06-29T15:33:43.859Z,29.50
2018-06-29T15:35:50.736Z,29.52
2018-06-29T15:37:55.469Z,29.47
2018-06-29T15:39:13.897Z,29.52
2018-06-29T15:40:12.993Z,29.50
2018-06-29T15:42:26.106Z,29.50
2018-06-29T15:43:27.443Z,29.45
2018-06-29T15:44:32.467Z,29.44
2018-06-29T15:45:42.508Z,29.47
2018-06-29T15:47:45.288Z,29.47
2018-06-29T15:49:00.142Z,29.45
2018-06-29T15:50:03.626Z,29.55
2018-06-29T15:51:14.593Z,29.47
2018-06-29T15:52:18.799Z,29.40
2018-06-29T15:54:29.769Z,29.25
2018-06-29T15:55:24.453Z,29.33
2018-06-29T15:56:33.572Z,29.31
2018-06-29T15:57:42.283Z,29.26
2018-06-29T15:58:41.367Z,29.20
2018-06-29T16:00:54.392Z,29.22
2018-06-29T16:01:55.929Z,29.33
2018-06-29T16:03:06.494Z,29.31
2018-06-29T16:04:14.272Z,29.28
2018-06-29T16:05:22.369Z,29.29
2018-06-29T16:06:35.389Z,29.23
2018-06-29T16:07:38.050Z,29.31
2018-06-29T16:08:35.190Z,29.25
2018-06-29T16:09:40.727Z,29.20
2018-06-29T16:10:41.757Z,29.22
2018-06-29T16:11:51.184Z,29.29
2018-06-29T16:15:05.132Z,29.26
2018-06-29T16:16:10.975Z,29.20
2018-06-29T16:18:30.550Z,29.23
2018-06-29T16:20:45.616Z,29.19
2018-06-29T16:21:38.673Z,29.18
2018-06-29T16:23:02.626Z,29.20
2018-06-29T16:23:42.767Z,29.15
2018-06-29T16:24:58.441Z,29.19
2018-06-29T16:27:16.082Z,29.13
2018-06-29T16:28:16.390Z,29.15
2018-06-29T16:30:18.238Z,29.13
2018-06-29T16:31:32.631Z,29.18
2018-06-29T16:33:41.095Z,29.22
2018-06-29T16:34:54.415Z,29.29
2018-06-29T16:35:50.032Z,29.22
2018-06-29T16:36:59.137Z,29.25
2018-06-29T16:38:06.006Z,29.16
2018-06-29T16:41:23.843Z,29.03
2018-06-29T16:42:26.718Z,29.07
2018-06-29T16:44:39.044Z,29.01
2018-06-29T16:45:44.351Z,28.96
2018-06-29T16:46:45.637Z,28.97
2018-06-29T16:47:56.755Z,29.04
2018-06-29T16:48:56.660Z,28.93
2018-06-29T16:50:09.267Z,29.00
2018-06-29T16:51:11.727Z,28.95
2018-06-29T16:52:17.687Z,28.90
2018-06-29T16:55:39.503Z,28.88
2018-06-29T16:56:44.322Z,28.91
2018-06-29T16:57:40.440Z,28.82
2018-06-29T16:59:50.304Z,28.93
2018-06-29T17:01:01.049Z,28.88
2018-06-29T17:02:12.819Z,28.81
2018-06-29T17:03:10.887Z,28.73
2018-06-29T17:04:13.247Z,28.68
2018-06-29T17:05:20.117Z,28.63
2018-06-29T17:07:28.525Z,28.43
2018-06-29T17:09:44.514Z,28.35
2018-06-29T17:10:49.435Z,28.23
2018-06-29T17:12:59.895Z,28.32
2018-06-29T17:14:07.375Z,28.25
2018-06-29T17:15:10.046Z,28.19
2018-06-29T17:16:20.497Z,28.19
2018-06-29T17:18:29.139Z,28.14